Time;durP1;ratioP1;P1;durP2;ratioP2;P2;SDS_P1;SDS_P2;PMS_P1;PMS_P2;Temp;Humidity;BMP_temperature;BMP_pressure;BME280_temperature;BME280_humidity;BME280_pressure;Samples;Min_cycle;Max_cycle;Signal;HPM_P1;HPM_P2
2023/08/29 04:03:46;;;;;;;4.10;1.80;;;15.30;97.30;;;;;;4973506;28;20473;-91
2023/08/29 04:07:06;;;;;;;3.33;3.13;;;15.30;97.30;;;;;;4974315;28;20950;-91
2023/08/29 04:13:36;;;;;;;2.00;1.87;;;15.30;97.30;;;;;;4977429;28;20425;-91
2023/08/29 04:16:56;;;;;;;;;;;;;;;;;;;;;
2023/08/29 04:19:56;;;;;;;3.30;3.20;;;15.30;97.30;;;;;;4974379;28;20954;-91
2023/08/29 04:22:22;;;;;;;3.40;3.00;;;15.30;97.30;;;;;;4972786;23;20982;-62
2023/08/29 04:24:48;;;;;;;3.60;1.73;;;15.30;97.30;;;;;;4952436;28;20462;-63
2023/08/29 04:27:14;;;;;;;3.10;1.87;;;15.30;97.30;;;;;;4952717;28;20171;-62
2023/08/29 04:29:39;;;;;;;2.73;2.53;;;15.30;97.30;;;;;;4951028;29;20431;-62
2023/08/29 04:32:05;;;;;;;4.07;2.97;;;15.30;97.30;;;;;;4962084;28;20798;-63
2023/08/29 04:34:31;;;;;;;5.57;2.20;;;15.30;97.30;;;;;;4952605;28;20194;-63
2023/08/29 04:36:56;;;;;;;5.60;3.63;;;15.30;97.30;;;;;;4952563;28;20211;-62
2023/08/29 04:39:22;;;;;;;3.83;2.83;;;15.30;97.30;;;;;;4967264;28;20187;-62
2023/08/29 04:41:49;;;;;;;2.60;2.33;;;15.20;97.30;;;;;;4954691;28;20199;-62
2023/08/29 04:44:15;;;;;;;3.50;2.90;;;15.20;97.30;;;;;;4953914;28;20599;-62
2023/08/29 04:46:41;;;;;;;4.43;3.13;;;15.30;97.30;;;;;;4951279;28;20414;-62
2023/08/29 04:49:06;;;;;;;2.50;2.30;;;15.20;97.30;;;;;;4950769;28;20192;-62
2023/08/29 04:51:34;;;;;;;5.80;3.57;;;15.20;97.30;;;;;;4957598;28;20202;-62
2023/08/29 04:54:00;;;;;;;4.60;2.40;;;15.20;97.30;;;;;;4958971;28;20672;-62
2023/08/29 04:56:26;;;;;;;4.23;3.07;;;15.20;97.30;;;;;;4974341;28;20569;-63
2023/08/29 04:58:51;;;;;;;4.50;2.23;;;15.20;97.30;;;;;;4955393;28;20210;-63
2023/08/29 05:01:17;;;;;;;1.83;1.83;;;15.20;97.30;;;;;;4967081;28;20210;-63
2023/08/29 05:03:43;;;;;;;4.80;3.27;;;15.20;97.30;;;;;;4958300;28;20238;-63
2023/08/29 05:06:08;;;;;;;2.70;2.50;;;15.20;97.30;;;;;;4976330;28;20501;-63
2023/08/29 05:08:36;;;;;;;2.43;2.23;;;15.20;97.30;;;;;;4957856;28;20277;-63
2023/08/29 05:11:02;;;;;;;2.37;2.17;;;15.20;97.30;;;;;;4962629;28;20198;-63
2023/08/29 05:13:28;;;;;;;4.90;3.17;;;15.20;97.30;;;;;;4956261;28;20781;-63
2023/08/29 05:15:54;;;;;;;3.83;2.90;;;15.20;97.30;;;;;;4958672;28;20436;-63
2023/08/29 05:18:19;;;;;;;3.60;2.50;;;15.20;97.30;;;;;;4956791;28;20194;-63
2023/08/29 05:20:45;;;;;;;4.30;3.17;;;15.20;97.30;;;;;;4950837;28;20593;-63
2023/08/29 05:23:10;;;;;;;2.33;2.13;;;15.20;97.30;;;;;;4967887;28;20277;-63
2023/08/29 05:25:36;;;;;;;4.83;2.50;;;15.20;97.30;;;;;;4957771;28;20171;-63
2023/08/29 05:28:02;;;;;;;2.20;1.93;;;15.20;97.30;;;;;;4948915;28;20187;-63
2023/08/29 05:30:30;;;;;;;4.03;3.20;;;15.20;97.30;;;;;;4948438;28;20275;-63
2023/08/29 05:32:56;;;;;;;3.00;2.43;;;15.20;97.30;;;;;;4958609;28;20472;-63
2023/08/29 05:35:21;;;;;;;5.00;2.80;;;15.20;97.30;;;;;;4956553;28;20471;-63
2023/08/29 05:37:47;;;;;;;5.03;3.93;;;15.20;97.30;;;;;;4950765;28;20191;-63
2023/08/29 05:40:13;;;;;;;2.20;1.80;;;15.20;97.30;;;;;;4959029;28;20422;-63
2023/08/29 05:42:38;;;;;;;3.73;2.87;;;15.20;97.30;;;;;;4958418;28;20174;-63
2023/08/29 05:45:04;;;;;;;1.90;1.83;;;15.20;97.30;;;;;;4960489;28;20214;-62
2023/08/29 05:47:30;;;;;;;2.03;1.93;;;15.20;97.30;;;;;;4956693;28;20190;-63
2023/08/29 05:49:55;;;;;;;2.10;1.77;;;15.20;97.30;;;;;;4949549;28;20861;-63
2023/08/29 05:52:21;;;;;;;2.13;1.83;;;15.20;97.30;;;;;;4954879;28;20579;-63
2023/08/29 05:54:46;;;;;;;4.33;2.90;;;15.20;97.30;;;;;;4956307;28;20187;-64
2023/08/29 05:57:12;;;;;;;4.70;1.83;;;15.20;97.30;;;;;;4965567;28;20246;-62
2023/08/29 05:59:38;;;;;;;2.10;1.83;;;15.20;97.30;;;;;;4956459;28;20556;-63
2023/08/29 06:02:05;;;;;;;3.23;2.20;;;15.20;97.30;;;;;;4949169;28;20700;-62
2023/08/29 06:04:32;;;;;;;4.07;2.00;;;15.20;97.30;;;;;;4952159;28;20571;-63
2023/08/29 06:06:58;;;;;;;12.93;2.87;;;15.30;97.30;;;;;;4948642;29;20457;-62
2023/08/29 06:09:23;;;;;;;4.40;2.60;;;15.30;97.30;;;;;;4949955;28;21065;-62
2023/08/29 06:11:49;;;;;;;4.67;2.03;;;15.30;97.30;;;;;;4948158;28;20840;-63
2023/08/29 06:14:15;;;;;;;1.87;1.70;;;15.30;97.30;;;;;;4950506;28;20191;-63
2023/08/29 06:16:40;;;;;;;4.13;3.30;;;15.30;97.30;;;;;;4949787;28;20198;-62
2023/08/29 06:19:06;;;;;;;4.43;2.53;;;15.30;97.30;;;;;;4949626;28;20826;-63
2023/08/29 06:21:31;;;;;;;3.00;2.80;;;15.30;97.30;;;;;;4950107;28;20273;-62
2023/08/29 06:23:57;;;;;;;3.57;2.77;;;15.30;97.30;;;;;;4951774;28;20209;-62
2023/08/29 06:26:22;;;;;;;13.73;2.63;;;15.30;97.30;;;;;;4950672;28;20183;-63
2023/08/29 06:28:48;;;;;;;2.33;1.80;;;15.30;97.30;;;;;;4966438;28;20198;-63
2023/08/29 06:31:14;;;;;;;2.33;1.87;;;15.30;97.30;;;;;;4951881;28;20203;-62
2023/08/29 06:33:40;;;;;;;1.77;1.67;;;15.30;97.30;;;;;;4951655;28;20187;-62
2023/08/29 06:36:06;;;;;;;3.93;2.63;;;15.30;97.30;;;;;;4951369;29;20508;-63
2023/08/29 06:38:31;;;;;;;7.03;2.97;;;15.30;97.30;;;;;;4966051;28;20274;-63
2023/08/29 06:40:58;;;;;;;2.90;2.73;;;15.30;97.30;;;;;;4950196;28;20589;-63
2023/08/29 06:43:24;;;;;;;2.13;1.97;;;15.30;97.30;;;;;;4950461;29;20213;-62
2023/08/29 06:45:50;;;;;;;1.53;1.43;;;15.30;97.30;;;;;;4949594;28;20430;-63
2023/08/29 06:48:16;;;;;;;1.77;1.70;;;15.30;97.30;;;;;;4950109;28;20423;-64
2023/08/29 06:50:41;;;;;;;1.60;1.50;;;15.30;97.30;;;;;;4949466;28;20454;-63
2023/08/29 06:53:07;;;;;;;1.60;1.50;;;15.30;97.30;;;;;;4956223;28;20179;-63
2023/08/29 06:55:35;;;;;;;2.03;1.67;;;15.30;97.30;;;;;;4949554;28;20187;-63
2023/08/29 06:58:02;;;;;;;6.33;2.87;;;15.30;97.30;;;;;;4949922;28;20414;-63
2023/08/29 07:00:28;;;;;;;2.77;1.97;;;15.30;97.30;;;;;;4949425;28;20473;-63
2023/08/29 07:02:53;;;;;;;2.03;1.90;;;15.30;97.30;;;;;;4948385;28;20927;-63
2023/08/29 07:05:19;;;;;;;2.33;1.90;;;15.30;97.30;;;;;;4948137;28;20182;-63
2023/08/29 07:07:45;;;;;;;1.87;1.77;;;15.30;97.30;;;;;;4949496;28;20191;-63
2023/08/29 07:10:10;;;;;;;4.30;2.80;;;15.40;97.30;;;;;;4964642;28;20426;-63
2023/08/29 07:12:37;;;;;;;2.37;2.17;;;15.40;97.30;;;;;;4951946;28;20262;-63
2023/08/29 07:15:03;;;;;;;3.63;2.60;;;15.40;97.30;;;;;;4947167;28;20241;-63
2023/08/29 07:17:29;;;;;;;3.50;2.30;;;15.40;97.30;;;;;;4965933;28;20955;-62
2023/08/29 07:19:55;;;;;;;2.60;2.40;;;15.40;97.30;;;;;;4955113;28;20455;-63
2023/08/29 07:22:20;;;;;;;2.40;2.20;;;15.40;97.30;;;;;;4950456;28;20513;-63
2023/08/29 07:24:46;;;;;;;1.90;1.83;;;15.40;97.30;;;;;;4951002;29;20206;-63
2023/08/29 07:27:11;;;;;;;7.60;2.80;;;15.40;97.30;;;;;;4948124;28;20292;-63
2023/08/29 07:29:37;;;;;;;2.13;1.97;;;15.40;97.30;;;;;;4948132;29;20452;-62
2023/08/29 07:32:03;;;;;;;3.23;2.20;;;15.40;97.30;;;;;;4947420;28;20202;-63
2023/08/29 07:34:28;;;;;;;2.53;1.63;;;15.40;97.30;;;;;;4949853;29;20274;-63
2023/08/29 07:36:54;;;;;;;3.63;3.33;;;15.40;97.30;;;;;;4947944;28;20198;-63
2023/08/29 07:39:21;;;;;;;2.50;1.83;;;15.40;97.30;;;;;;4949112;28;20668;-62
2023/08/29 07:41:47;;;;;;;2.93;2.53;;;15.40;97.30;;;;;;4952995;28;20251;-63
2023/08/29 07:44:13;;;;;;;3.17;1.77;;;15.50;97.30;;;;;;4952583;29;20508;-63
2023/08/29 07:46:38;;;;;;;4.00;2.80;;;15.50;97.30;;;;;;4958884;28;20280;-62
2023/08/29 07:49:10;;;;;;;2.70;2.50;;;15.50;97.30;;;;;;4953790;28;20194;-63
2023/08/29 07:51:36;;;;;;;3.73;2.03;;;15.50;97.30;;;;;;4953450;28;20234;-63
2023/08/29 07:54:02;;;;;;;3.90;1.77;;;15.50;97.30;;;;;;4953830;28;20505;-63
2023/08/29 07:56:27;;;;;;;1.80;1.77;;;15.50;97.30;;;;;;4953622;28;20453;-63
2023/08/29 07:58:53;;;;;;;2.40;2.00;;;15.60;97.30;;;;;;4953718;29;20187;-62
2023/08/29 08:01:18;;;;;;;4.43;2.90;;;15.60;97.30;;;;;;4951718;28;20210;-62
2023/08/29 08:03:44;;;;;;;2.90;2.40;;;15.60;97.30;;;;;;4951573;28;20206;-63
2023/08/29 08:06:10;;;;;;;2.10;1.73;;;15.60;97.30;;;;;;4951493;28;20183;-63
2023/08/29 08:08:35;;;;;;;2.23;2.07;;;15.60;97.30;;;;;;4951705;29;20269;-62
2023/08/29 08:11:01;;;;;;;1.90;1.67;;;15.60;97.30;;;;;;4952395;28;20262;-63
2023/08/29 08:13:28;;;;;;;1.77;1.67;;;15.60;97.30;;;;;;4952584;28;20187;-62
2023/08/29 08:15:53;;;;;;;2.37;2.17;;;15.60;97.30;;;;;;4952708;28;20187;-63
2023/08/29 08:18:19;;;;;;;3.33;2.60;;;15.60;97.30;;;;;;4952481;29;20424;-62
2023/08/29 08:20:44;;;;;;;3.10;2.90;;;15.60;97.30;;;;;;4950695;28;20253;-63
2023/08/29 08:23:10;;;;;;;1.93;1.80;;;15.60;97.30;;;;;;4950677;28;20218;-63
2023/08/29 08:25:36;;;;;;;8.93;3.27;;;15.60;97.30;;;;;;4951191;29;20198;-63
2023/08/29 08:28:01;;;;;;;1.90;1.60;;;15.70;97.30;;;;;;4944394;29;20191;-63
2023/08/29 08:30:28;;;;;;;1.63;1.47;;;15.70;97.30;;;;;;4952255;28;20211;-62
2023/08/29 08:32:54;;;;;;;4.37;3.20;;;15.80;97.30;;;;;;4951452;29;20241;-63
2023/08/29 08:35:20;;;;;;;2.60;2.40;;;15.70;97.30;;;;;;4950702;28;20944;-63
2023/08/29 08:37:45;;;;;;;3.53;1.87;;;15.70;97.30;;;;;;4950788;28;20191;-63
2023/08/29 08:40:12;;;;;;;3.33;2.40;;;15.70;97.30;;;;;;4952794;28;20188;-62
2023/08/29 08:42:39;;;;;;;3.20;3.00;;;15.70;97.30;;;;;;4953013;28;20602;-63
2023/08/29 08:45:06;;;;;;;2.00;1.50;;;15.80;97.30;;;;;;4952758;28;20459;-62
2023/08/29 08:47:34;;;;;;;2.53;1.77;;;15.80;97.30;;;;;;4951326;28;20482;-62
2023/08/29 08:50:00;;;;;;;3.80;2.40;;;15.80;97.30;;;;;;4952760;28;20505;-62
2023/08/29 08:52:26;;;;;;;1.73;1.63;;;15.80;97.30;;;;;;4957581;28;21035;-62
2023/08/29 08:54:52;;;;;;;3.23;2.60;;;15.70;97.30;;;;;;4952802;28;20209;-63
2023/08/29 08:57:17;;;;;;;5.87;3.77;;;15.70;97.30;;;;;;4967558;28;20904;-63
2023/08/29 08:59:43;;;;;;;2.67;2.00;;;15.70;97.30;;;;;;4952668;28;20187;-62
2023/08/29 09:02:12;;;;;;;5.23;1.70;;;15.80;97.30;;;;;;4952036;28;20644;-62
2023/08/29 09:04:38;;;;;;;2.20;1.63;;;15.80;97.30;;;;;;4952675;28;20297;-63
2023/08/29 09:07:03;;;;;;;2.40;1.77;;;15.80;97.30;;;;;;4952420;28;20486;-63
2023/08/29 09:09:29;;;;;;;2.07;1.87;;;15.70;97.30;;;;;;4952543;28;20412;-63
2023/08/29 09:11:57;;;;;;;2.50;1.93;;;15.70;97.30;;;;;;4950139;28;20806;-62
2023/08/29 09:14:24;;;;;;;1.93;1.83;;;15.70;97.30;;;;;;4951564;29;20194;-63
2023/08/29 09:16:57;;;;;;;1.93;1.57;;;15.70;97.30;;;;;;4951389;28;20438;-63
2023/08/29 09:19:24;;;;;;;1.90;1.80;;;15.70;97.30;;;;;;4951634;28;21077;-61
2023/08/29 09:21:50;;;;;;;2.07;1.93;;;15.60;97.30;;;;;;4950370;28;20490;-63
2023/08/29 09:24:36;;;;;;;4.30;2.50;;;15.60;97.30;;;;;;4951524;28;21033;-63
2023/08/29 09:27:09;;;;;;;3.63;2.70;;;15.70;97.30;;;;;;4951302;28;20426;-63
2023/08/29 09:29:35;;;;;;;2.30;2.10;;;15.70;97.30;;;;;;4951198;28;20423;-63
2023/08/29 09:32:14;;;;;;;4.80;2.33;;;15.80;97.30;;;;;;4950725;29;20465;-64
2023/08/29 09:34:40;;;;;;;3.17;2.97;;;15.90;97.30;;;;;;4947917;29;20431;-63
2023/08/29 09:37:06;;;;;;;3.17;2.97;;;15.90;97.30;;;;;;4949652;28;21021;-62
2023/08/29 09:39:32;;;;;;;3.40;2.47;;;16.00;97.30;;;;;;4952597;28;20427;-63
2023/08/29 09:42:03;;;;;;;3.13;1.77;;;16.00;97.30;;;;;;4951814;28;20558;-62
2023/08/29 09:44:29;;;;;;;1.40;1.40;;;16.00;97.30;;;;;;4951802;29;20654;-62
2023/08/29 09:46:56;;;;;;;8.00;2.97;;;16.10;97.30;;;;;;4951579;28;20454;-62
2023/08/29 09:49:21;;;;;;;2.20;2.00;;;16.10;97.30;;;;;;4966465;28;20805;-62
2023/08/29 09:51:48;;;;;;;2.67;2.47;;;16.10;97.30;;;;;;4950208;28;20457;-62
2023/08/29 09:54:18;;;;;;;1.60;1.50;;;16.00;97.30;;;;;;4948772;28;20190;-62
2023/08/29 09:56:44;;;;;;;2.47;2.30;;;16.00;97.30;;;;;;4950213;28;20419;-61
2023/08/29 09:59:12;;;;;;;2.37;2.17;;;16.00;97.30;;;;;;4944089;28;20447;-62
2023/08/29 10:01:42;;;;;;;2.20;1.90;;;16.00;97.30;;;;;;4946067;28;20211;-62
2023/08/29 10:04:10;;;;;;;2.60;2.43;;;16.00;97.30;;;;;;4965814;28;21090;-62
2023/08/29 10:06:38;;;;;;;4.93;3.03;;;16.00;97.30;;;;;;4950132;29;20923;-62
2023/08/29 10:09:05;;;;;;;4.93;3.00;;;16.00;97.30;;;;;;4949840;28;20497;-62
2023/08/29 10:11:32;;;;;;;3.83;2.30;;;16.00;97.30;;;;;;4950972;28;20461;-62
2023/08/29 10:16:31;;;;;;;2.33;2.13;;;16.00;97.30;;;;;;4971183;28;20489;-87
2023/08/29 10:18:56;;;;;;;2.93;2.73;;;16.00;97.30;;;;;;4975442;28;20428;-88
2023/08/29 10:21:23;;;;;;;3.77;2.67;;;16.10;97.30;;;;;;4971678;28;20425;-88
2023/08/29 10:23:50;;;;;;;5.13;2.97;;;16.10;97.30;;;;;;4972018;28;20225;-88
2023/08/29 10:26:17;;;;;;;5.33;3.43;;;16.10;97.30;;;;;;4952415;28;20458;-87
2023/08/29 10:28:45;;;;;;;5.40;3.27;;;16.10;97.30;;;;;;4950404;28;20470;-88
2023/08/29 10:31:11;;;;;;;4.10;2.77;;;16.10;97.30;;;;;;4947563;28;20825;-87
2023/08/29 10:33:37;;;;;;;1.23;1.13;;;16.10;97.30;;;;;;4950726;28;20438;-86
2023/08/29 10:36:05;;;;;;;3.43;1.40;;;16.10;97.30;;;;;;4948692;28;20991;-86
2023/08/29 10:38:31;;;;;;;5.20;2.70;;;16.10;97.30;;;;;;4948999;29;20198;-86
2023/08/29 10:41:12;;;;;;;9.03;2.60;;;16.10;97.30;;;;;;4950454;29;20438;-88
2023/08/29 10:43:37;;;;;;;1.70;1.40;;;16.20;97.30;;;;;;4950182;29;20269;-86
2023/08/29 10:46:14;;;;;;;7.40;2.63;;;16.20;97.30;;;;;;4949573;28;20466;-87
2023/08/29 10:48:39;;;;;;;2.17;2.03;;;16.30;97.30;;;;;;4950512;28;20206;-86
2023/08/29 10:51:08;;;;;;;2.10;1.80;;;16.30;97.30;;;;;;4965246;28;20474;-86
2023/08/29 10:53:51;;;;;;;3.13;1.60;;;16.30;97.30;;;;;;4967417;28;20195;-85
2023/08/29 10:56:18;;;;;;;1.60;1.53;;;16.30;97.30;;;;;;4944083;28;20474;-86
2023/08/29 10:58:47;;;;;;;2.47;2.13;;;16.30;97.30;;;;;;4951503;28;20939;-86
2023/08/29 11:01:28;;;;;;;3.57;2.73;;;16.30;97.30;;;;;;4949769;29;20442;-86
2023/08/29 11:03:55;;;;;;;1.50;1.40;;;16.40;97.30;;;;;;4947892;29;20469;-86
2023/08/29 11:06:25;;;;;;;2.37;2.17;;;16.40;97.30;;;;;;4950672;28;20470;-85
2023/08/29 11:09:20;;;;;;;6.07;2.87;;;16.40;97.30;;;;;;4949378;28;20510;-85
2023/08/29 11:12:07;;;;;;;5.10;3.90;;;16.40;97.30;;;;;;4952407;28;20433;-85
2023/08/29 11:14:53;;;;;;;1.53;1.30;;;16.40;97.30;;;;;;4956593;28;20481;-86
2023/08/29 11:17:23;;;;;;;2.70;2.50;;;16.40;97.30;;;;;;4968165;28;20454;-87
2023/08/29 11:19:54;;;;;;;2.70;2.50;;;16.40;97.30;;;;;;4957094;28;20434;-88
2023/08/29 11:22:29;;;;;;;4.83;1.97;;;16.50;97.30;;;;;;4961788;28;20469;-88
2023/08/29 11:24:55;;;;;;;2.50;2.20;;;16.50;97.30;;;;;;4958280;28;20544;-88
2023/08/29 11:27:31;;;;;;;3.17;2.70;;;16.50;97.30;;;;;;4962971;28;20435;-88
2023/08/29 11:30:00;;;;;;;3.10;2.90;;;16.50;97.30;;;;;;4979422;28;20434;-87
2023/08/29 11:32:28;;;;;;;2.13;1.93;;;16.50;97.30;;;;;;4958768;28;20473;-87
2023/08/29 11:34:54;;;;;;;1.53;1.47;;;16.50;97.30;;;;;;4959555;28;20461;-88
2023/08/29 11:37:23;;;;;;;4.33;1.93;;;16.50;97.30;;;;;;4960886;28;20476;-88
2023/08/29 11:39:58;;;;;;;2.27;1.63;;;16.50;97.30;;;;;;4961873;28;20494;-87
2023/08/29 11:42:28;;;;;;;3.23;2.60;;;16.50;97.30;;;;;;4959902;28;20799;-88
2023/08/29 11:44:54;;;;;;;1.87;1.80;;;16.50;97.30;;;;;;4963560;28;20465;-86
2023/08/29 11:47:20;;;;;;;2.70;2.60;;;16.50;97.30;;;;;;4959494;28;20446;-87
2023/08/29 11:49:49;;;;;;;3.17;2.10;;;16.50;97.30;;;;;;4963550;28;20282;-88
2023/08/29 11:52:18;;;;;;;2.50;1.90;;;16.50;97.30;;;;;;4961448;28;20426;-85
2023/08/29 11:54:50;;;;;;;3.20;2.70;;;16.60;97.30;;;;;;4959280;28;20469;-88
2023/08/29 11:57:16;;;;;;;3.03;2.83;;;16.60;97.30;;;;;;4982933;28;20805;-87
2023/08/29 11:59:46;;;;;;;2.50;2.00;;;16.60;97.30;;;;;;4960223;28;20470;-85
2023/08/29 12:02:16;;;;;;;2.00;1.83;;;16.60;97.30;;;;;;4956273;28;20489;-86
2023/08/29 12:04:43;;;;;;;2.13;1.97;;;16.70;97.30;;;;;;4962391;28;20897;-88
2023/08/29 12:07:09;;;;;;;2.97;2.40;;;16.70;97.30;;;;;;4961840;28;20437;-86
2023/08/29 12:09:35;;;;;;;2.17;1.97;;;16.70;97.30;;;;;;4966638;28;20433;-86
2023/08/29 12:12:01;;;;;;;2.70;2.13;;;16.80;97.30;;;;;;4962423;28;20182;-86
2023/08/29 12:14:27;;;;;;;5.37;2.30;;;16.80;97.30;;;;;;4965264;28;20226;-85
2023/08/29 12:16:55;;;;;;;2.30;2.00;;;16.80;97.30;;;;;;4960390;28;20183;-88
2023/08/29 12:19:21;;;;;;;4.03;2.83;;;16.80;97.30;;;;;;4960903;28;20419;-88
2023/08/29 12:21:54;;;;;;;4.13;2.70;;;16.90;97.30;;;;;;4964519;28;20421;-87
2023/08/29 12:24:20;;;;;;;1.53;1.47;;;16.90;97.30;;;;;;4963141;28;20249;-86
2023/08/29 12:26:46;;;;;;;1.97;1.90;;;16.90;97.30;;;;;;4964798;28;20458;-86
2023/08/29 12:29:11;;;;;;;3.83;2.67;;;16.90;97.30;;;;;;4956761;28;20440;-88
2023/08/29 12:31:37;;;;;;;2.90;2.70;;;16.90;97.30;;;;;;4954540;28;20191;-87
2023/08/29 12:34:03;;;;;;;3.93;2.60;;;17.00;97.30;;;;;;4955778;28;20184;-88
2023/08/29 12:36:28;;;;;;;2.33;2.13;;;17.00;97.30;;;;;;4954193;28;20191;-87
2023/08/29 12:38:54;;;;;;;3.50;2.50;;;17.00;97.30;;;;;;4953163;29;20437;-87
2023/08/29 12:41:21;;;;;;;4.03;1.97;;;17.00;97.30;;;;;;4954992;28;20198;-87
2023/08/29 12:43:46;;;;;;;2.27;1.80;;;17.00;97.30;;;;;;4953336;28;20313;-86
2023/08/29 12:46:12;;;;;;;4.10;2.10;;;17.10;97.30;;;;;;4953795;29;20474;-87
2023/08/29 12:48:37;;;;;;;4.10;2.47;;;17.10;97.30;;;;;;4959834;28;20179;-86
2023/08/29 12:51:03;;;;;;;3.83;2.13;;;17.10;97.30;;;;;;4954143;28;20179;-87
2023/08/29 12:53:29;;;;;;;2.50;2.30;;;17.10;97.30;;;;;;4953346;28;20293;-86
2023/08/29 12:55:54;;;;;;;1.70;1.60;;;17.10;97.30;;;;;;4950093;28;20222;-87
2023/08/29 12:58:20;;;;;;;1.83;1.40;;;17.10;97.30;;;;;;4953851;29;20478;-86
2023/08/29 13:00:46;;;;;;;2.70;2.50;;;17.10;97.30;;;;;;4953489;29;20590;-86
2023/08/29 13:03:12;;;;;;;3.13;2.93;;;17.10;97.30;;;;;;4954745;28;20218;-87
2023/08/29 13:05:37;;;;;;;1.33;1.33;;;17.10;97.30;;;;;;4958089;28;20812;-86
2023/08/29 13:08:04;;;;;;;1.60;1.50;;;17.10;97.30;;;;;;4953328;28;20184;-86
2023/08/29 13:10:30;;;;;;;1.27;1.20;;;17.10;97.30;;;;;;4953679;29;20190;-87
2023/08/29 13:12:56;;;;;;;2.90;2.50;;;17.10;97.30;;;;;;4953690;29;20453;-86
2023/08/29 13:15:22;;;;;;;2.30;2.20;;;17.20;97.30;;;;;;4955333;28;20517;-86
2023/08/29 13:17:49;;;;;;;2.70;1.70;;;17.20;97.30;;;;;;4951098;28;20188;-86
2023/08/29 13:20:16;;;;;;;6.73;2.33;;;17.30;97.30;;;;;;4951251;28;20231;-87
2023/08/29 13:22:43;;;;;;;2.17;1.83;;;17.30;97.30;;;;;;4952555;29;20438;-86
2023/08/29 13:25:08;;;;;;;2.00;1.63;;;17.30;97.30;;;;;;4952397;28;20552;-86
2023/08/29 13:27:34;;;;;;;2.03;1.50;;;17.40;97.30;;;;;;4953427;29;20847;-86
2023/08/29 13:30:00;;;;;;;1.67;1.57;;;17.40;97.30;;;;;;4954489;28;20186;-87
2023/08/29 13:32:26;;;;;;;4.73;3.10;;;17.40;97.30;;;;;;4953643;29;20777;-87
2023/08/29 13:34:51;;;;;;;2.90;1.40;;;17.40;97.30;;;;;;4954497;28;20215;-88
2023/08/29 13:37:17;;;;;;;2.87;2.20;;;17.40;97.30;;;;;;4952826;29;20273;-87
2023/08/29 13:39:44;;;;;;;1.63;1.40;;;17.40;97.30;;;;;;4953822;28;20213;-88
2023/08/29 13:42:09;;;;;;;2.70;1.87;;;17.40;97.30;;;;;;4952444;29;20186;-87
2023/08/29 13:44:35;;;;;;;1.30;1.20;;;17.40;97.30;;;;;;4954275;29;20471;-86
2023/08/29 13:47:00;;;;;;;2.83;2.10;;;17.30;97.30;;;;;;4956501;28;20199;-84
2023/08/29 13:49:26;;;;;;;1.87;1.30;;;17.30;97.30;;;;;;4954847;28;20230;-87
2023/08/29 13:51:51;;;;;;;2.87;1.77;;;17.30;97.30;;;;;;4972976;28;20207;-86
2023/08/29 13:54:17;;;;;;;1.37;1.27;;;17.20;97.30;;;;;;4966129;28;20257;-86
2023/08/29 13:56:44;;;;;;;1.30;1.20;;;17.20;97.30;;;;;;4957664;28;20259;-84
2023/08/29 13:59:09;;;;;;;1.70;1.60;;;17.20;97.30;;;;;;4985271;28;20265;-84
2023/08/29 14:01:35;;;;;;;2.13;1.97;;;17.10;97.30;;;;;;4953756;29;20522;-87
2023/08/29 14:04:00;;;;;;;2.93;1.53;;;17.00;97.30;;;;;;4951733;28;20199;-88
2023/08/29 14:06:27;;;;;;;2.10;1.77;;;17.00;97.30;;;;;;4951282;29;20203;-88
2023/08/29 14:08:53;;;;;;;2.20;1.43;;;16.90;97.30;;;;;;4953012;29;20214;-86
2023/08/29 14:11:19;;;;;;;1.00;0.90;;;16.90;97.30;;;;;;4954721;28;20949;-87
2023/08/29 14:13:44;;;;;;;1.43;1.33;;;16.80;97.30;;;;;;4951786;28;20198;-86
2023/08/29 14:16:10;;;;;;;10.63;1.83;;;16.80;97.30;;;;;;4949413;28;20257;-86
2023/08/29 14:18:35;;;;;;;1.47;1.37;;;16.80;97.30;;;;;;4951839;28;20597;-88
2023/08/29 14:21:03;;;;;;;1.37;1.20;;;16.80;97.30;;;;;;4950807;28;20654;-85
2023/08/29 14:23:29;;;;;;;2.13;1.97;;;16.80;97.30;;;;;;4951710;29;20211;-87
2023/08/29 14:25:54;;;;;;;0.90;0.87;;;16.70;97.30;;;;;;4950317;28;20498;-87
2023/08/29 14:28:20;;;;;;;1.00;1.00;;;16.70;97.30;;;;;;4950446;29;20645;-87
2023/08/29 14:30:48;;;;;;;1.07;0.97;;;16.80;97.30;;;;;;4948810;29;20238;-88
2023/08/29 14:33:14;;;;;;;1.20;1.10;;;16.70;97.30;;;;;;4950467;29;20454;-87
2023/08/29 14:35:40;;;;;;;0.90;0.87;;;16.80;97.30;;;;;;4951531;28;20498;-86
2023/08/29 14:38:05;;;;;;;1.00;0.90;;;16.80;97.30;;;;;;4952364;28;20438;-86
2023/08/29 14:40:31;;;;;;;1.20;1.10;;;16.80;97.30;;;;;;4951736;29;20446;-87
2023/08/29 14:42:56;;;;;;;1.23;1.23;;;16.80;97.30;;;;;;4952032;29;20234;-87
2023/08/29 14:45:22;;;;;;;3.30;1.50;;;16.80;97.30;;;;;;4951660;28;20709;-87
2023/08/29 14:47:47;;;;;;;2.10;1.40;;;16.80;97.30;;;;;;4950700;29;20215;-87
2023/08/29 14:50:13;;;;;;;1.20;1.10;;;16.80;97.30;;;;;;4950509;28;20183;-86
2023/08/29 14:52:40;;;;;;;1.33;1.17;;;16.80;97.30;;;;;;4954373;28;20619;-87
2023/08/29 14:55:06;;;;;;;1.37;1.27;;;16.70;97.30;;;;;;4951240;28;20269;-85
2023/08/29 14:57:33;;;;;;;1.50;1.30;;;16.70;97.30;;;;;;4952098;28;20435;-87
2023/08/29 15:00:01;;;;;;;1.07;1.00;;;16.70;97.30;;;;;;4951814;29;20447;-86
2023/08/29 15:02:26;;;;;;;1.37;1.27;;;16.60;97.30;;;;;;4951698;29;20453;-87
2023/08/29 15:04:52;;;;;;;3.90;1.40;;;16.60;97.30;;;;;;4951734;28;21071;-86
2023/08/29 15:07:18;;;;;;;3.00;1.73;;;16.60;97.30;;;;;;4953089;28;20191;-86
2023/08/29 15:09:44;;;;;;;1.10;1.00;;;16.50;97.30;;;;;;4957864;28;20238;-87
2023/08/29 15:12:09;;;;;;;1.00;0.93;;;16.50;97.30;;;;;;4951527;28;20430;-87
2023/08/29 15:14:35;;;;;;;1.27;1.20;;;16.50;97.30;;;;;;4952262;28;20914;-87
2023/08/29 15:17:00;;;;;;;1.37;1.30;;;16.50;97.30;;;;;;4952258;29;20191;-86
2023/08/29 15:19:26;;;;;;;7.70;1.40;;;16.50;97.30;;;;;;4950777;29;20190;-86
2023/08/29 15:21:52;;;;;;;1.53;1.30;;;16.60;97.30;;;;;;4952383;29;20186;-87
2023/08/29 15:24:17;;;;;;;2.20;1.37;;;16.60;97.30;;;;;;4951582;28;20780;-86
2023/08/29 15:26:43;;;;;;;1.50;1.43;;;16.60;97.30;;;;;;4953034;28;20579;-87
2023/08/29 15:29:09;;;;;;;2.90;2.70;;;16.60;97.30;;;;;;4951909;29;20175;-86
2023/08/29 15:31:34;;;;;;;1.27;1.17;;;16.60;97.30;;;;;;4951809;29;20995;-86
2023/08/29 15:34:00;;;;;;;1.90;1.80;;;16.60;97.30;;;;;;4952118;28;20187;-87
2023/08/29 15:36:26;;;;;;;1.37;1.10;;;16.60;97.30;;;;;;4951701;29;20187;-86
2023/08/29 15:38:52;;;;;;;4.70;1.27;;;16.60;97.30;;;;;;4952785;28;20603;-86
2023/08/29 15:41:17;;;;;;;1.33;1.23;;;16.60;97.30;;;;;;4953100;28;20184;-86
2023/08/29 15:43:43;;;;;;;1.33;1.23;;;16.60;97.30;;;;;;4951911;29;20694;-87
2023/08/29 15:46:08;;;;;;;1.37;1.33;;;16.60;97.30;;;;;;4951734;28;20199;-85
2023/08/29 15:48:34;;;;;;;1.73;1.43;;;16.60;97.30;;;;;;4951627;28;20428;-86
2023/08/29 15:50:59;;;;;;;1.17;1.07;;;16.60;97.30;;;;;;4951771;28;20187;-86
2023/08/29 15:53:25;;;;;;;1.53;1.43;;;16.60;97.30;;;;;;4953145;28;20187;-87
2023/08/29 15:56:05;;;;;;;1.30;1.20;;;16.60;97.30;;;;;;4951731;28;20195;-86
2023/08/29 15:58:31;;;;;;;2.90;1.77;;;16.60;97.30;;;;;;4951993;29;20183;-86
2023/08/29 16:00:56;;;;;;;1.27;1.17;;;16.60;97.30;;;;;;4951355;28;20785;-86
2023/08/29 16:03:22;;;;;;;1.10;1.00;;;16.60;97.30;;;;;;4955132;29;20654;-87
2023/08/29 16:05:51;;;;;;;4.90;1.77;;;16.60;97.30;;;;;;4967593;28;20218;-86
2023/08/29 16:08:17;;;;;;;1.00;0.90;;;16.60;97.30;;;;;;4952645;29;20190;-87
2023/08/29 16:10:42;;;;;;;2.30;2.13;;;16.60;97.30;;;;;;4970885;28;20423;-87
2023/08/29 16:13:08;;;;;;;1.43;1.40;;;16.60;97.30;;;;;;4955397;29;20684;-86
2023/08/29 16:15:34;;;;;;;10.93;2.37;;;16.60;97.30;;;;;;5010926;23;20237;-65
2023/08/29 16:18:00;;;;;;;1.47;0.97;;;16.60;97.30;;;;;;4992007;28;20177;-65
2023/08/29 16:20:25;;;;;;;1.37;1.30;;;16.60;97.30;;;;;;4987558;28;20442;-65
2023/08/29 16:22:51;;;;;;;3.57;1.57;;;16.60;97.30;;;;;;4972236;28;20190;-65
2023/08/29 16:25:17;;;;;;;1.10;1.00;;;16.60;97.30;;;;;;4969168;28;20228;-67
2023/08/29 16:27:43;;;;;;;3.33;1.43;;;16.60;97.30;;;;;;4971144;28;20564;-65
2023/08/29 16:30:10;;;;;;;3.53;1.30;;;16.60;97.30;;;;;;4972392;28;20550;-65
2023/08/29 16:32:36;;;;;;;1.13;1.03;;;16.50;97.30;;;;;;4972258;28;20418;-65
2023/08/29 16:35:03;;;;;;;1.00;0.90;;;16.50;97.30;;;;;;4972200;28;20422;-65
2023/08/29 16:37:29;;;;;;;1.10;1.00;;;16.40;97.30;;;;;;4971260;28;20494;-65
2023/08/29 16:39:55;;;;;;;1.20;1.10;;;16.30;97.30;;;;;;4971142;28;20523;-65
2023/08/29 16:42:20;;;;;;;1.43;1.33;;;16.20;97.30;;;;;;4971870;28;20206;-65
2023/08/29 16:44:46;;;;;;;0.80;0.80;;;16.20;97.30;;;;;;4970518;28;20574;-65
2023/08/29 16:47:12;;;;;;;1.23;1.13;;;16.20;97.30;;;;;;4970965;28;20689;-65
2023/08/29 16:49:37;;;;;;;1.23;0.93;;;16.20;97.30;;;;;;4970243;28;20717;-65
2023/08/29 16:52:05;;;;;;;1.10;1.00;;;16.10;97.30;;;;;;4976310;28;20310;-65
2023/08/29 16:54:31;;;;;;;1.50;1.40;;;16.10;97.30;;;;;;4970601;28;20193;-65
2023/08/29 16:56:57;;;;;;;1.07;1.00;;;16.10;97.30;;;;;;4971153;28;20449;-65